sensor_id;sensor_type;location;lat;lon;timestamp;P1;durP1;ratioP1;P2;durP2;ratioP2
32333;SDS011;18810;53.040;8.850;2023-07-20T00:00:53;3.30;;;2.22;;
32333;SDS011;18810;53.040;8.850;2023-07-20T00:03:19;4.10;;;2.40;;
32333;SDS011;18810;53.040;8.850;2023-07-20T00:08:16;3.55;;;2.92;;
32333;SDS011;18810;53.040;8.850;2023-07-20T00:10:43;5.07;;;2.60;;
32333;SDS011;18810;53.040;8.850;2023-07-20T00:13:10;2.50;;;2.25;;
32333;SDS011;18810;53.040;8.850;2023-07-20T00:15:36;2.40;;;2.20;;
32333;SDS011;18810;53.040;8.850;2023-07-20T00:18:03;2.75;;;2.55;;
32333;SDS011;18810;53.040;8.850;2023-07-20T00:20:29;3.45;;;2.60;;
32333;SDS011;18810;53.040;8.850;2023-07-20T00:22:55;3.95;;;2.60;;
32333;SDS011;18810;53.040;8.850;2023-07-20T00:25:22;3.83;;;2.60;;
32333;SDS011;18810;53.040;8.850;2023-07-20T00:27:48;3.80;;;2.75;;
32333;SDS011;18810;53.040;8.850;2023-07-20T00:30:14;4.28;;;2.50;;
32333;SDS011;18810;53.040;8.850;2023-07-20T00:32:41;3.38;;;2.83;;
32333;SDS011;18810;53.040;8.850;2023-07-20T00:35:07;3.28;;;2.83;;
32333;SDS011;18810;53.040;8.850;2023-07-20T00:37:33;3.78;;;2.85;;
32333;SDS011;18810;53.040;8.850;2023-07-20T00:39:59;3.65;;;2.92;;
32333;SDS011;18810;53.040;8.850;2023-07-20T00:42:25;3.20;;;2.80;;
32333;SDS011;18810;53.040;8.850;2023-07-20T00:44:51;2.78;;;2.58;;
32333;SDS011;18810;53.040;8.850;2023-07-20T00:47:16;4.53;;;2.92;;
32333;SDS011;18810;53.040;8.850;2023-07-20T00:49:42;3.05;;;2.60;;
32333;SDS011;18810;53.040;8.850;2023-07-20T00:52:08;4.70;;;3.35;;
32333;SDS011;18810;53.040;8.850;2023-07-20T00:54:37;5.53;;;3.50;;
32333;SDS011;18810;53.040;8.850;2023-07-20T00:57:02;4.13;;;3.58;;
32333;SDS011;18810;53.040;8.850;2023-07-20T00:59:29;4.05;;;3.50;;
32333;SDS011;18810;53.040;8.850;2023-07-20T01:01:55;4.22;;;3.35;;
32333;SDS011;18810;53.040;8.850;2023-07-20T01:04:21;4.97;;;3.80;;
32333;SDS011;18810;53.040;8.850;2023-07-20T01:09:28;5.43;;;3.85;;
32333;SDS011;18810;53.040;8.850;2023-07-20T01:12:02;6.07;;;4.25;;
32333;SDS011;18810;53.040;8.850;2023-07-20T01:14:35;7.32;;;4.80;;
32333;SDS011;18810;53.040;8.850;2023-07-20T01:17:01;6.10;;;4.70;;
32333;SDS011;18810;53.040;8.850;2023-07-20T01:19:28;6.70;;;4.70;;
32333;SDS011;18810;53.040;8.850;2023-07-20T01:21:59;5.57;;;4.88;;
32333;SDS011;18810;53.040;8.850;2023-07-20T01:30:25;6.05;;;4.60;;
32333;SDS011;18810;53.040;8.850;2023-07-20T01:33:08;6.13;;;4.38;;
32333;SDS011;18810;53.040;8.850;2023-07-20T01:35:36;5.00;;;4.50;;
32333;SDS011;18810;53.040;8.850;2023-07-20T01:38:03;6.22;;;4.60;;
32333;SDS011;18810;53.040;8.850;2023-07-20T01:40:29;5.15;;;4.60;;
32333;SDS011;18810;53.040;8.850;2023-07-20T01:42:56;5.43;;;4.80;;
32333;SDS011;18810;53.040;8.850;2023-07-20T01:45:22;4.75;;;4.20;;
32333;SDS011;18810;53.040;8.850;2023-07-20T01:47:48;6.57;;;4.65;;
32333;SDS011;18810;53.040;8.850;2023-07-20T01:50:14;4.05;;;3.67;;
32333;SDS011;18810;53.040;8.850;2023-07-20T01:52:39;5.10;;;4.60;;
32333;SDS011;18810;53.040;8.850;2023-07-20T01:55:05;7.00;;;4.80;;
32333;SDS011;18810;53.040;8.850;2023-07-20T01:57:31;6.30;;;4.82;;
32333;SDS011;18810;53.040;8.850;2023-07-20T01:59:57;5.97;;;4.20;;
32333;SDS011;18810;53.040;8.850;2023-07-20T02:02:25;4.82;;;4.10;;
32333;SDS011;18810;53.040;8.850;2023-07-20T02:04:53;6.28;;;5.60;;
32333;SDS011;18810;53.040;8.850;2023-07-20T02:07:19;4.80;;;4.30;;
32333;SDS011;18810;53.040;8.850;2023-07-20T02:09:45;4.40;;;4.00;;
32333;SDS011;18810;53.040;8.850;2023-07-20T02:12:11;7.20;;;4.75;;
32333;SDS011;18810;53.040;8.850;2023-07-20T02:14:36;6.78;;;5.15;;
32333;SDS011;18810;53.040;8.850;2023-07-20T02:17:04;5.45;;;4.72;;
32333;SDS011;18810;53.040;8.850;2023-07-20T02:19:30;5.15;;;4.63;;
32333;SDS011;18810;53.040;8.850;2023-07-20T02:21:56;5.85;;;5.20;;
32333;SDS011;18810;53.040;8.850;2023-07-20T02:24:22;5.35;;;4.68;;
32333;SDS011;18810;53.040;8.850;2023-07-20T02:26:50;5.75;;;4.70;;
32333;SDS011;18810;53.040;8.850;2023-07-20T02:29:17;4.25;;;3.80;;
32333;SDS011;18810;53.040;8.850;2023-07-20T02:31:43;6.15;;;4.18;;
32333;SDS011;18810;53.040;8.850;2023-07-20T02:34:08;3.85;;;3.45;;
32333;SDS011;18810;53.040;8.850;2023-07-20T02:36:35;3.70;;;3.40;;
32333;SDS011;18810;53.040;8.850;2023-07-20T02:39:01;4.75;;;3.72;;
32333;SDS011;18810;53.040;8.850;2023-07-20T02:41:28;3.78;;;3.40;;
32333;SDS011;18810;53.040;8.850;2023-07-20T02:43:58;4.18;;;3.78;;
32333;SDS011;18810;53.040;8.850;2023-07-20T02:46:23;3.60;;;3.30;;
32333;SDS011;18810;53.040;8.850;2023-07-20T02:48:49;4.55;;;4.03;;
32333;SDS011;18810;53.040;8.850;2023-07-20T02:51:15;4.38;;;4.00;;
32333;SDS011;18810;53.040;8.850;2023-07-20T02:53:40;4.57;;;3.40;;
32333;SDS011;18810;53.040;8.850;2023-07-20T02:56:06;4.18;;;3.75;;
32333;SDS011;18810;53.040;8.850;2023-07-20T02:58:34;4.50;;;4.10;;
32333;SDS011;18810;53.040;8.850;2023-07-20T03:01:03;4.00;;;3.65;;
32333;SDS011;18810;53.040;8.850;2023-07-20T03:03:29;6.28;;;4.18;;
32333;SDS011;18810;53.040;8.850;2023-07-20T03:05:54;5.85;;;5.35;;
32333;SDS011;18810;53.040;8.850;2023-07-20T03:08:24;5.38;;;4.32;;
32333;SDS011;18810;53.040;8.850;2023-07-20T03:10:49;5.30;;;4.80;;
32333;SDS011;18810;53.040;8.850;2023-07-20T03:13:15;5.25;;;4.78;;
32333;SDS011;18810;53.040;8.850;2023-07-20T03:15:41;5.30;;;4.80;;
32333;SDS011;18810;53.040;8.850;2023-07-20T03:18:06;5.88;;;5.28;;
32333;SDS011;18810;53.040;8.850;2023-07-20T03:20:32;6.60;;;5.10;;
32333;SDS011;18810;53.040;8.850;2023-07-20T03:23:00;5.80;;;5.20;;
32333;SDS011;18810;53.040;8.850;2023-07-20T03:25:25;5.15;;;4.65;;
32333;SDS011;18810;53.040;8.850;2023-07-20T03:27:51;5.13;;;4.63;;
32333;SDS011;18810;53.040;8.850;2023-07-20T03:30:16;5.72;;;5.15;;
32333;SDS011;18810;53.040;8.850;2023-07-20T03:32:42;5.60;;;4.43;;
32333;SDS011;18810;53.040;8.850;2023-07-20T03:35:08;5.97;;;5.13;;
32333;SDS011;18810;53.040;8.850;2023-07-20T03:37:34;5.28;;;4.63;;
32333;SDS011;18810;53.040;8.850;2023-07-20T03:40:01;5.05;;;4.53;;
32333;SDS011;18810;53.040;8.850;2023-07-20T03:42:28;8.55;;;4.45;;
32333;SDS011;18810;53.040;8.850;2023-07-20T03:44:53;4.97;;;4.47;;
32333;SDS011;18810;53.040;8.850;2023-07-20T03:47:19;5.38;;;4.88;;
32333;SDS011;18810;53.040;8.850;2023-07-20T03:49:44;5.28;;;4.57;;
32333;SDS011;18810;53.040;8.850;2023-07-20T03:52:10;8.38;;;5.63;;
32333;SDS011;18810;53.040;8.850;2023-07-20T03:54:35;7.18;;;5.53;;
32333;SDS011;18810;53.040;8.850;2023-07-20T03:57:01;7.40;;;5.75;;
32333;SDS011;18810;53.040;8.850;2023-07-20T03:59:27;9.10;;;5.45;;
32333;SDS011;18810;53.040;8.850;2023-07-20T04:01:52;6.85;;;6.25;;
32333;SDS011;18810;53.040;8.850;2023-07-20T04:04:18;8.43;;;6.00;;
32333;SDS011;18810;53.040;8.850;2023-07-20T04:06:45;7.97;;;6.00;;
32333;SDS011;18810;53.040;8.850;2023-07-20T04:09:11;8.00;;;6.60;;
32333;SDS011;18810;53.040;8.850;2023-07-20T04:11:37;7.80;;;6.70;;
32333;SDS011;18810;53.040;8.850;2023-07-20T04:14:03;6.45;;;5.65;;
32333;SDS011;18810;53.040;8.850;2023-07-20T04:16:29;6.97;;;6.18;;
32333;SDS011;18810;53.040;8.850;2023-07-20T04:18:55;8.20;;;7.32;;
32333;SDS011;18810;53.040;8.850;2023-07-20T04:21:21;10.05;;;6.13;;
32333;SDS011;18810;53.040;8.850;2023-07-20T04:23:47;7.97;;;6.10;;
32333;SDS011;18810;53.040;8.850;2023-07-20T04:26:13;7.57;;;5.97;;
32333;SDS011;18810;53.040;8.850;2023-07-20T04:28:40;6.32;;;5.72;;
32333;SDS011;18810;53.040;8.850;2023-07-20T04:31:14;10.25;;;6.70;;
32333;SDS011;18810;53.040;8.850;2023-07-20T04:33:41;7.07;;;6.22;;
32333;SDS011;18810;53.040;8.850;2023-07-20T04:36:06;7.32;;;6.45;;
32333;SDS011;18810;53.040;8.850;2023-07-20T04:38:33;9.07;;;7.57;;
32333;SDS011;18810;53.040;8.850;2023-07-20T04:40:58;7.65;;;6.70;;
32333;SDS011;18810;53.040;8.850;2023-07-20T04:43:24;10.55;;;7.70;;
32333;SDS011;18810;53.040;8.850;2023-07-20T04:45:51;8.75;;;6.75;;
32333;SDS011;18810;53.040;8.850;2023-07-20T04:48:17;7.25;;;6.53;;
32333;SDS011;18810;53.040;8.850;2023-07-20T04:50:43;9.80;;;7.13;;
32333;SDS011;18810;53.040;8.850;2023-07-20T04:53:10;8.77;;;7.78;;
32333;SDS011;18810;53.040;8.850;2023-07-20T04:55:39;9.13;;;7.55;;
32333;SDS011;18810;53.040;8.850;2023-07-20T04:58:05;8.75;;;7.80;;
32333;SDS011;18810;53.040;8.850;2023-07-20T05:00:32;8.23;;;7.22;;
32333;SDS011;18810;53.040;8.850;2023-07-20T05:02:58;8.07;;;7.28;;
32333;SDS011;18810;53.040;8.850;2023-07-20T05:05:24;8.90;;;7.35;;
32333;SDS011;18810;53.040;8.850;2023-07-20T05:07:49;11.25;;;7.28;;
32333;SDS011;18810;53.040;8.850;2023-07-20T05:10:15;9.32;;;7.05;;
32333;SDS011;18810;53.040;8.850;2023-07-20T05:12:41;8.23;;;6.70;;
32333;SDS011;18810;53.040;8.850;2023-07-20T05:15:07;9.45;;;7.78;;
32333;SDS011;18810;53.040;8.850;2023-07-20T05:17:33;8.45;;;6.78;;
32333;SDS011;18810;53.040;8.850;2023-07-20T05:19:59;8.35;;;7.00;;
32333;SDS011;18810;53.040;8.850;2023-07-20T05:22:24;9.52;;;7.72;;
32333;SDS011;18810;53.040;8.850;2023-07-20T05:24:50;9.30;;;7.90;;
32333;SDS011;18810;53.040;8.850;2023-07-20T05:27:16;9.65;;;7.38;;
32333;SDS011;18810;53.040;8.850;2023-07-20T05:29:45;8.05;;;7.25;;
32333;SDS011;18810;53.040;8.850;2023-07-20T05:32:11;9.10;;;6.85;;
32333;SDS011;18810;53.040;8.850;2023-07-20T05:34:40;11.73;;;7.18;;
32333;SDS011;18810;53.040;8.850;2023-07-20T05:37:06;7.70;;;6.63;;
32333;SDS011;18810;53.040;8.850;2023-07-20T05:39:34;9.38;;;6.65;;
32333;SDS011;18810;53.040;8.850;2023-07-20T05:42:00;12.15;;;6.35;;
32333;SDS011;18810;53.040;8.850;2023-07-20T05:44:25;6.68;;;6.00;;
32333;SDS011;18810;53.040;8.850;2023-07-20T05:46:51;9.73;;;6.47;;
32333;SDS011;18810;53.040;8.850;2023-07-20T05:49:17;7.95;;;6.57;;
32333;SDS011;18810;53.040;8.850;2023-07-20T05:51:42;7.93;;;5.55;;
32333;SDS011;18810;53.040;8.850;2023-07-20T05:54:08;8.07;;;5.80;;
32333;SDS011;18810;53.040;8.850;2023-07-20T05:56:33;7.50;;;5.95;;
32333;SDS011;18810;53.040;8.850;2023-07-20T05:58:59;6.90;;;5.60;;
32333;SDS011;18810;53.040;8.850;2023-07-20T06:01:25;8.30;;;5.82;;
32333;SDS011;18810;53.040;8.850;2023-07-20T06:03:52;8.00;;;5.22;;
32333;SDS011;18810;53.040;8.850;2023-07-20T06:06:18;5.07;;;4.57;;
32333;SDS011;18810;53.040;8.850;2023-07-20T06:08:44;6.30;;;4.47;;
32333;SDS011;18810;53.040;8.850;2023-07-20T06:11:10;4.85;;;4.40;;
32333;SDS011;18810;53.040;8.850;2023-07-20T06:13:36;5.65;;;4.43;;
32333;SDS011;18810;53.040;8.850;2023-07-20T06:16:02;4.72;;;4.07;;
32333;SDS011;18810;53.040;8.850;2023-07-20T06:18:28;5.18;;;3.30;;
32333;SDS011;18810;53.040;8.850;2023-07-20T06:20:55;4.38;;;3.03;;
32333;SDS011;18810;53.040;8.850;2023-07-20T06:23:21;3.15;;;2.85;;
32333;SDS011;18810;53.040;8.850;2023-07-20T06:25:46;6.43;;;3.20;;
32333;SDS011;18810;53.040;8.850;2023-07-20T06:28:13;5.85;;;3.58;;
32333;SDS011;18810;53.040;8.850;2023-07-20T06:30:39;3.67;;;3.08;;
32333;SDS011;18810;53.040;8.850;2023-07-20T06:33:05;5.53;;;3.03;;
32333;SDS011;18810;53.040;8.850;2023-07-20T06:35:31;2.90;;;2.00;;
32333;SDS011;18810;53.040;8.850;2023-07-20T06:37:57;3.42;;;2.08;;
32333;SDS011;18810;53.040;8.850;2023-07-20T06:40:24;4.47;;;1.98;;
32333;SDS011;18810;53.040;8.850;2023-07-20T06:42:49;5.45;;;1.90;;
32333;SDS011;18810;53.040;8.850;2023-07-20T06:45:15;3.17;;;1.92;;
32333;SDS011;18810;53.040;8.850;2023-07-20T06:47:41;2.72;;;1.50;;
32333;SDS011;18810;53.040;8.850;2023-07-20T06:50:07;2.97;;;2.00;;
32333;SDS011;18810;53.040;8.850;2023-07-20T06:52:34;2.13;;;1.38;;
32333;SDS011;18810;53.040;8.850;2023-07-20T06:55:00;3.20;;;1.55;;
32333;SDS011;18810;53.040;8.850;2023-07-20T06:57:26;6.32;;;1.60;;
32333;SDS011;18810;53.040;8.850;2023-07-20T06:59:51;3.20;;;1.40;;
32333;SDS011;18810;53.040;8.850;2023-07-20T07:02:18;1.90;;;1.40;;
32333;SDS011;18810;53.040;8.850;2023-07-20T07:04:44;3.05;;;1.40;;
32333;SDS011;18810;53.040;8.850;2023-07-20T07:07:10;3.80;;;1.77;;
32333;SDS011;18810;53.040;8.850;2023-07-20T07:09:36;3.63;;;1.70;;
32333;SDS011;18810;53.040;8.850;2023-07-20T07:12:01;1.70;;;1.50;;
32333;SDS011;18810;53.040;8.850;2023-07-20T07:14:27;4.05;;;1.65;;
32333;SDS011;18810;53.040;8.850;2023-07-20T07:16:53;3.55;;;1.63;;
32333;SDS011;18810;53.040;8.850;2023-07-20T07:19:18;3.55;;;1.58;;
32333;SDS011;18810;53.040;8.850;2023-07-20T07:21:45;2.00;;;1.40;;
32333;SDS011;18810;53.040;8.850;2023-07-20T07:24:10;1.65;;;1.33;;
32333;SDS011;18810;53.040;8.850;2023-07-20T07:26:36;1.55;;;1.40;;
32333;SDS011;18810;53.040;8.850;2023-07-20T07:29:02;2.42;;;1.60;;
32333;SDS011;18810;53.040;8.850;2023-07-20T07:31:28;1.90;;;1.27;;
32333;SDS011;18810;53.040;8.850;2023-07-20T07:33:55;3.13;;;1.38;;
32333;SDS011;18810;53.040;8.850;2023-07-20T07:36:21;1.80;;;1.58;;
32333;SDS011;18810;53.040;8.850;2023-07-20T07:38:48;2.42;;;1.38;;
32333;SDS011;18810;53.040;8.850;2023-07-20T07:41:13;2.53;;;1.45;;
32333;SDS011;18810;53.040;8.850;2023-07-20T07:43:39;2.88;;;1.52;;
32333;SDS011;18810;53.040;8.850;2023-07-20T07:46:05;2.45;;;1.50;;
32333;SDS011;18810;53.040;8.850;2023-07-20T07:48:30;2.72;;;1.73;;
32333;SDS011;18810;53.040;8.850;2023-07-20T07:50:56;3.92;;;1.63;;
32333;SDS011;18810;53.040;8.850;2023-07-20T07:53:21;1.42;;;1.30;;
32333;SDS011;18810;53.040;8.850;2023-07-20T07:55:47;1.40;;;1.30;;
32333;SDS011;18810;53.040;8.850;2023-07-20T07:58:13;4.13;;;1.33;;
32333;SDS011;18810;53.040;8.850;2023-07-20T08:00:39;3.17;;;1.67;;
32333;SDS011;18810;53.040;8.850;2023-07-20T08:03:07;2.85;;;1.40;;
32333;SDS011;18810;53.040;8.850;2023-07-20T08:05:33;3.38;;;1.40;;
32333;SDS011;18810;53.040;8.850;2023-07-20T08:08:00;2.97;;;1.50;;
32333;SDS011;18810;53.040;8.850;2023-07-20T08:10:29;3.28;;;1.35;;
32333;SDS011;18810;53.040;8.850;2023-07-20T08:12:55;2.42;;;1.30;;
32333;SDS011;18810;53.040;8.850;2023-07-20T08:15:21;2.63;;;1.27;;
32333;SDS011;18810;53.040;8.850;2023-07-20T08:17:47;3.10;;;1.38;;
32333;SDS011;18810;53.040;8.850;2023-07-20T08:20:13;3.47;;;1.30;;
32333;SDS011;18810;53.040;8.850;2023-07-20T08:22:41;4.32;;;1.50;;
32333;SDS011;18810;53.040;8.850;2023-07-20T08:25:07;3.35;;;1.63;;
32333;SDS011;18810;53.040;8.850;2023-07-20T08:27:33;2.47;;;1.33;;
32333;SDS011;18810;53.040;8.850;2023-07-20T08:29:59;4.40;;;1.45;;
32333;SDS011;18810;53.040;8.850;2023-07-20T08:32:25;3.28;;;1.70;;
32333;SDS011;18810;53.040;8.850;2023-07-20T08:34:51;4.50;;;1.67;;
32333;SDS011;18810;53.040;8.850;2023-07-20T08:37:17;4.03;;;1.70;;
32333;SDS011;18810;53.040;8.850;2023-07-20T08:39:42;3.80;;;1.60;;
32333;SDS011;18810;53.040;8.850;2023-07-20T08:42:11;4.38;;;1.60;;
32333;SDS011;18810;53.040;8.850;2023-07-20T08:44:39;3.70;;;1.58;;
32333;SDS011;18810;53.040;8.850;2023-07-20T08:47:07;3.20;;;1.42;;
32333;SDS011;18810;53.040;8.850;2023-07-20T08:49:35;2.33;;;1.55;;
32333;SDS011;18810;53.040;8.850;2023-07-20T08:52:00;2.03;;;1.50;;
32333;SDS011;18810;53.040;8.850;2023-07-20T08:54:29;2.20;;;1.60;;
32333;SDS011;18810;53.040;8.850;2023-07-20T08:57:01;3.33;;;1.43;;
32333;SDS011;18810;53.040;8.850;2023-07-20T08:59:28;4.82;;;1.70;;
32333;SDS011;18810;53.040;8.850;2023-07-20T09:01:56;4.28;;;1.67;;
32333;SDS011;18810;53.040;8.850;2023-07-20T09:04:23;6.68;;;1.75;;
32333;SDS011;18810;53.040;8.850;2023-07-20T09:06:49;5.38;;;1.88;;
32333;SDS011;18810;53.040;8.850;2023-07-20T09:09:15;1.90;;;1.52;;
32333;SDS011;18810;53.040;8.850;2023-07-20T09:11:41;5.28;;;2.10;;
32333;SDS011;18810;53.040;8.850;2023-07-20T09:14:08;3.03;;;1.60;;
32333;SDS011;18810;53.040;8.850;2023-07-20T09:16:52;4.35;;;1.70;;
32333;SDS011;18810;53.040;8.850;2023-07-20T09:19:19;3.65;;;1.55;;
32333;SDS011;18810;53.040;8.850;2023-07-20T09:21:46;1.92;;;1.45;;
32333;SDS011;18810;53.040;8.850;2023-07-20T09:24:13;2.38;;;1.58;;
32333;SDS011;18810;53.040;8.850;2023-07-20T09:26:43;3.17;;;1.73;;
32333;SDS011;18810;53.040;8.850;2023-07-20T09:29:10;3.00;;;1.60;;
32333;SDS011;18810;53.040;8.850;2023-07-20T09:31:36;9.13;;;2.55;;
32333;SDS011;18810;53.040;8.850;2023-07-20T09:34:04;2.55;;;1.65;;
32333;SDS011;18810;53.040;8.850;2023-07-20T09:36:33;5.22;;;1.70;;
32333;SDS011;18810;53.040;8.850;2023-07-20T09:39:00;3.75;;;1.60;;
32333;SDS011;18810;53.040;8.850;2023-07-20T09:41:26;3.88;;;1.83;;
32333;SDS011;18810;53.040;8.850;2023-07-20T09:43:52;7.88;;;2.35;;
32333;SDS011;18810;53.040;8.850;2023-07-20T09:46:18;2.95;;;1.20;;
32333;SDS011;18810;53.040;8.850;2023-07-20T09:48:54;1.58;;;1.20;;
32333;SDS011;18810;53.040;8.850;2023-07-20T09:51:23;2.50;;;1.33;;
32333;SDS011;18810;53.040;8.850;2023-07-20T09:53:51;2.47;;;1.50;;
32333;SDS011;18810;53.040;8.850;2023-07-20T09:56:19;2.33;;;1.42;;
32333;SDS011;18810;53.040;8.850;2023-07-20T09:58:47;1.42;;;1.33;;
32333;SDS011;18810;53.040;8.850;2023-07-20T10:01:13;2.67;;;1.60;;
32333;SDS011;18810;53.040;8.850;2023-07-20T10:03:45;1.35;;;1.15;;
32333;SDS011;18810;53.040;8.850;2023-07-20T10:06:12;3.88;;;1.50;;
32333;SDS011;18810;53.040;8.850;2023-07-20T10:08:40;3.50;;;1.40;;
32333;SDS011;18810;53.040;8.850;2023-07-20T10:11:08;4.25;;;1.30;;
32333;SDS011;18810;53.040;8.850;2023-07-20T10:13:36;1.73;;;1.25;;
32333;SDS011;18810;53.040;8.850;2023-07-20T10:16:05;2.38;;;1.40;;
32333;SDS011;18810;53.040;8.850;2023-07-20T10:18:38;2.35;;;1.42;;
32333;SDS011;18810;53.040;8.850;2023-07-20T10:21:13;2.10;;;1.48;;
32333;SDS011;18810;53.040;8.850;2023-07-20T10:23:41;3.10;;;2.13;;
32333;SDS011;18810;53.040;8.850;2023-07-20T10:26:07;5.97;;;2.45;;
32333;SDS011;18810;53.040;8.850;2023-07-20T10:28:34;4.18;;;2.50;;
32333;SDS011;18810;53.040;8.850;2023-07-20T10:30:59;5.80;;;3.22;;
32333;SDS011;18810;53.040;8.850;2023-07-20T10:33:25;6.07;;;3.08;;
32333;SDS011;18810;53.040;8.850;2023-07-20T10:35:56;8.40;;;3.75;;
32333;SDS011;18810;53.040;8.850;2023-07-20T10:41:21;6.65;;;3.15;;
32333;SDS011;18810;53.040;8.850;2023-07-20T10:44:04;5.18;;;2.85;;
32333;SDS011;18810;53.040;8.850;2023-07-20T10:49:03;3.40;;;2.47;;
32333;SDS011;18810;53.040;8.850;2023-07-20T10:51:30;4.97;;;2.50;;
32333;SDS011;18810;53.040;8.850;2023-07-20T10:56:52;4.55;;;2.55;;
32333;SDS011;18810;53.040;8.850;2023-07-20T10:59:18;6.05;;;2.55;;
32333;SDS011;18810;53.040;8.850;2023-07-20T11:02:02;4.15;;;2.20;;
32333;SDS011;18810;53.040;8.850;2023-07-20T11:07:07;3.33;;;2.03;;
32333;SDS011;18810;53.040;8.850;2023-07-20T11:09:33;3.08;;;1.92;;
32333;SDS011;18810;53.040;8.850;2023-07-20T11:12:09;2.67;;;2.10;;
32333;SDS011;18810;53.040;8.850;2023-07-20T11:14:43;3.70;;;1.90;;
32333;SDS011;18810;53.040;8.850;2023-07-20T11:17:19;2.38;;;1.92;;
32333;SDS011;18810;53.040;8.850;2023-07-20T11:19:54;4.47;;;1.55;;
32333;SDS011;18810;53.040;8.850;2023-07-20T11:22:21;3.80;;;1.75;;
32333;SDS011;18810;53.040;8.850;2023-07-20T11:24:46;3.65;;;1.85;;
32333;SDS011;18810;53.040;8.850;2023-07-20T11:27:14;2.53;;;1.73;;
32333;SDS011;18810;53.040;8.850;2023-07-20T11:29:40;2.55;;;2.05;;
32333;SDS011;18810;53.040;8.850;2023-07-20T11:32:06;4.55;;;1.77;;
32333;SDS011;18810;53.040;8.850;2023-07-20T11:34:32;3.65;;;2.08;;
32333;SDS011;18810;53.040;8.850;2023-07-20T11:36:59;2.90;;;1.58;;
32333;SDS011;18810;53.040;8.850;2023-07-20T11:39:25;2.13;;;1.48;;
32333;SDS011;18810;53.040;8.850;2023-07-20T11:41:55;3.53;;;1.98;;
32333;SDS011;18810;53.040;8.850;2023-07-20T11:44:22;5.07;;;1.93;;
32333;SDS011;18810;53.040;8.850;2023-07-20T11:46:59;4.25;;;1.77;;
32333;SDS011;18810;53.040;8.850;2023-07-20T11:49:43;2.05;;;1.50;;
32333;SDS011;18810;53.040;8.850;2023-07-20T11:52:11;5.53;;;1.80;;
32333;SDS011;18810;53.040;8.850;2023-07-20T11:54:40;3.50;;;1.48;;
32333;SDS011;18810;53.040;8.850;2023-07-20T11:57:06;3.58;;;1.58;;
32333;SDS011;18810;53.040;8.850;2023-07-20T11:59:32;2.33;;;1.88;;
32333;SDS011;18810;53.040;8.850;2023-07-20T12:02:00;5.18;;;1.98;;
32333;SDS011;18810;53.040;8.850;2023-07-20T12:04:28;3.33;;;1.70;;
32333;SDS011;18810;53.040;8.850;2023-07-20T12:06:54;3.78;;;1.98;;
32333;SDS011;18810;53.040;8.850;2023-07-20T12:09:20;4.43;;;1.83;;
32333;SDS011;18810;53.040;8.850;2023-07-20T12:11:48;3.60;;;2.10;;
32333;SDS011;18810;53.040;8.850;2023-07-20T12:14:14;3.92;;;2.03;;
32333;SDS011;18810;53.040;8.850;2023-07-20T12:16:40;3.47;;;1.60;;
32333;SDS011;18810;53.040;8.850;2023-07-20T12:19:10;1.88;;;1.67;;
32333;SDS011;18810;53.040;8.850;2023-07-20T12:21:38;5.45;;;2.40;;
32333;SDS011;18810;53.040;8.850;2023-07-20T12:24:06;7.15;;;2.40;;
32333;SDS011;18810;53.040;8.850;2023-07-20T12:26:34;5.25;;;2.38;;
32333;SDS011;18810;53.040;8.850;2023-07-20T12:29:00;4.47;;;2.35;;
32333;SDS011;18810;53.040;8.850;2023-07-20T12:31:26;5.97;;;2.30;;
32333;SDS011;18810;53.040;8.850;2023-07-20T12:33:53;4.13;;;2.38;;
32333;SDS011;18810;53.040;8.850;2023-07-20T12:36:22;3.92;;;2.30;;
32333;SDS011;18810;53.040;8.850;2023-07-20T12:38:48;6.05;;;3.17;;
32333;SDS011;18810;53.040;8.850;2023-07-20T12:41:13;5.30;;;2.75;;
32333;SDS011;18810;53.040;8.850;2023-07-20T12:43:43;4.13;;;2.00;;
32333;SDS011;18810;53.040;8.850;2023-07-20T12:46:10;4.35;;;2.05;;
32333;SDS011;18810;53.040;8.850;2023-07-20T12:48:39;2.10;;;1.60;;
32333;SDS011;18810;53.040;8.850;2023-07-20T12:51:07;3.45;;;1.52;;
32333;SDS011;18810;53.040;8.850;2023-07-20T12:53:34;5.13;;;1.63;;
32333;SDS011;18810;53.040;8.850;2023-07-20T12:56:00;4.68;;;1.92;;
32333;SDS011;18810;53.040;8.850;2023-07-20T12:58:26;4.25;;;1.90;;
32333;SDS011;18810;53.040;8.850;2023-07-20T13:00:52;4.25;;;2.10;;
32333;SDS011;18810;53.040;8.850;2023-07-20T13:03:18;3.72;;;1.88;;
32333;SDS011;18810;53.040;8.850;2023-07-20T13:05:45;3.33;;;1.45;;
32333;SDS011;18810;53.040;8.850;2023-07-20T13:08:11;4.35;;;1.40;;
32333;SDS011;18810;53.040;8.850;2023-07-20T13:10:36;3.47;;;1.50;;
32333;SDS011;18810;53.040;8.850;2023-07-20T13:13:03;3.47;;;1.50;;
32333;SDS011;18810;53.040;8.850;2023-07-20T13:15:30;5.07;;;1.80;;
32333;SDS011;18810;53.040;8.850;2023-07-20T13:17:57;2.40;;;1.50;;
32333;SDS011;18810;53.040;8.850;2023-07-20T13:20:23;4.30;;;1.95;;
32333;SDS011;18810;53.040;8.850;2023-07-20T13:22:50;4.80;;;2.28;;
32333;SDS011;18810;53.040;8.850;2023-07-20T13:25:16;3.65;;;2.28;;
32333;SDS011;18810;53.040;8.850;2023-07-20T13:27:42;7.00;;;2.30;;
32333;SDS011;18810;53.040;8.850;2023-07-20T13:30:08;4.32;;;2.20;;
32333;SDS011;18810;53.040;8.850;2023-07-20T13:32:36;2.78;;;2.13;;
32333;SDS011;18810;53.040;8.850;2023-07-20T13:35:02;4.72;;;2.40;;
32333;SDS011;18810;53.040;8.850;2023-07-20T13:37:28;3.83;;;2.17;;
32333;SDS011;18810;53.040;8.850;2023-07-20T13:39:54;2.58;;;1.42;;
32333;SDS011;18810;53.040;8.850;2023-07-20T13:42:21;5.07;;;1.58;;
32333;SDS011;18810;53.040;8.850;2023-07-20T13:44:47;2.08;;;1.40;;
32333;SDS011;18810;53.040;8.850;2023-07-20T13:47:13;4.40;;;1.70;;
32333;SDS011;18810;53.040;8.850;2023-07-20T13:49:40;2.72;;;1.33;;
32333;SDS011;18810;53.040;8.850;2023-07-20T13:52:06;2.58;;;1.38;;
32333;SDS011;18810;53.040;8.850;2023-07-20T13:54:32;5.05;;;1.42;;
32333;SDS011;18810;53.040;8.850;2023-07-20T13:56:58;3.55;;;1.38;;
32333;SDS011;18810;53.040;8.850;2023-07-20T13:59:23;4.28;;;1.30;;
32333;SDS011;18810;53.040;8.850;2023-07-20T14:01:50;2.42;;;1.20;;
32333;SDS011;18810;53.040;8.850;2023-07-20T14:04:15;1.75;;;1.05;;
32333;SDS011;18810;53.040;8.850;2023-07-20T14:06:42;2.70;;;1.30;;
32333;SDS011;18810;53.040;8.850;2023-07-20T14:09:08;2.72;;;1.30;;
32333;SDS011;18810;53.040;8.850;2023-07-20T14:11:33;1.92;;;1.40;;
32333;SDS011;18810;53.040;8.850;2023-07-20T14:13:59;2.97;;;1.48;;
32333;SDS011;18810;53.040;8.850;2023-07-20T14:16:25;2.17;;;1.30;;
32333;SDS011;18810;53.040;8.850;2023-07-20T14:18:51;1.52;;;1.30;;
32333;SDS011;18810;53.040;8.850;2023-07-20T14:21:18;1.38;;;1.17;;
32333;SDS011;18810;53.040;8.850;2023-07-20T14:23:48;2.78;;;1.40;;
32333;SDS011;18810;53.040;8.850;2023-07-20T14:26:14;2.53;;;1.30;;
32333;SDS011;18810;53.040;8.850;2023-07-20T14:28:40;2.10;;;1.27;;
32333;SDS011;18810;53.040;8.850;2023-07-20T14:31:06;1.75;;;1.15;;
32333;SDS011;18810;53.040;8.850;2023-07-20T14:33:32;2.33;;;1.10;;
32333;SDS011;18810;53.040;8.850;2023-07-20T14:35:58;2.55;;;1.42;;
32333;SDS011;18810;53.040;8.850;2023-07-20T14:38:26;3.72;;;1.65;;
32333;SDS011;18810;53.040;8.850;2023-07-20T14:40:52;4.45;;;1.40;;
32333;SDS011;18810;53.040;8.850;2023-07-20T14:43:18;3.03;;;1.63;;
32333;SDS011;18810;53.040;8.850;2023-07-20T14:45:44;4.20;;;1.45;;
32333;SDS011;18810;53.040;8.850;2023-07-20T14:48:10;4.63;;;1.67;;
32333;SDS011;18810;53.040;8.850;2023-07-20T14:50:36;2.13;;;1.30;;
32333;SDS011;18810;53.040;8.850;2023-07-20T14:53:02;3.92;;;1.02;;
32333;SDS011;18810;53.040;8.850;2023-07-20T14:55:28;2.88;;;1.42;;
32333;SDS011;18810;53.040;8.850;2023-07-20T14:57:53;3.70;;;1.40;;
32333;SDS011;18810;53.040;8.850;2023-07-20T15:00:19;4.15;;;1.92;;
32333;SDS011;18810;53.040;8.850;2023-07-20T15:02:45;2.33;;;1.50;;
32333;SDS011;18810;53.040;8.850;2023-07-20T15:05:11;1.98;;;1.35;;
32333;SDS011;18810;53.040;8.850;2023-07-20T15:07:37;3.40;;;1.48;;